EGGD Airport Information

Runway Information
Runway 09 Length 6598 ft width 151 ft
Elevation 613 ft Threshold 0 ft Heading 86
Runway 27 Length 6598 ft Width 151 ft
Elevation 601 ft Threshold 443 ft Heading 266
Airport Frequencies
Type ATIS Name ATIS Frequency 126.025 MHZ
Type GND Name GND Frequency 121.925 MHZ
Type RDR Name RDR Frequency 136.075 MHZ
Type TWR Name TWR Frequency 133.85 MHZ
Airport Navaids
Type NDB Name Bristol Frequency 414 KHZ
Airport Weather Information & NOTAM
ADDS - METARS form results

(0336 UTC 18 November 2018)
Data provider http://aviationweather.gov/metar/data/
 
METAR text: EGGD 180320Z AUTO 05013KT 3200 BR NCD 03/03 Q1025
Conditions at: EGGD (BRISTOL/LULSGATE, GB) observed 0320 UTC 18 November 2018
Temperature: 3.0°C (37°F)
Dewpoint: 3.0°C (37°F) [RH = 100%]
Pressure (altimeter): 30.27 inches Hg (1025.0 mb)
Winds: from the NE (50 degrees) at 15 MPH (13 knots; 6.7 m/s)
Visibility: 1.99 miles (3.20 km)
Ceiling: at least 12,000 feet AGL
Clouds: sky clear below 12,000 feet AGL
Weather: BR  (mist)

METAR text: EGGD 180250Z AUTO 06013KT 3200 BR NCD 03/03 Q1025
Conditions at: EGGD (BRISTOL/LULSGATE, GB) observed 0250 UTC 18 November 2018
Temperature: 3.0°C (37°F)
Dewpoint: 3.0°C (37°F) [RH = 100%]
Pressure (altimeter): 30.27 inches Hg (1025.0 mb)
Winds: from the ENE (60 degrees) at 15 MPH (13 knots; 6.7 m/s)
Visibility: 1.99 miles (3.20 km)
Ceiling: at least 12,000 feet AGL
Clouds: sky clear below 12,000 feet AGL
Weather: BR  (mist)

Forecast for: AMD
Text: TAF AMD EGGD 180016Z 1800/1824 07012KT CAVOK
Forecast period: 0000 UTC 18 November 2018 to 0000 UTC 19 November 2018
Forecast type: FROM: standard forecast or significant change
Winds: from the ENE (70 degrees) at 14 MPH (12 knots; 6.2 m/s)
Visibility: 6 or more miles 10+ km)
Ceiling: unknown
Clouds: missing
Weather: NSW  (no significant weather)
Text: TEMPO 1800/1808 4000 BR BKN012
Forecast period: 0000 to 0800 UTC 18 November 2018
Forecast type: TEMPORARY: The following changes expected for less than half the time period
Visibility: 2.49 miles (4.01 km)
Ceiling: 1200 feet AGL
Clouds: broken clouds at 1200 feet AGL
Weather: BR  (mist)
Text: PROB40 1817/1824 7000
Forecast period: 1700 UTC 18 November 2018 to 0000 UTC 19 November 2018
Forecast type: PROBABLE: 40 percent likelihood of the following during this time
Visibility: 4 miles (7 km)
Ceiling: unknown
Clouds: missing
Weather: no significant weather forecast for this period